LGTS/SKG METAR and TAF weather

Enter ICAO airport designator
Station Type Date Time Source
LGTS METAR 2022/06/30 01:20 UTC NOAA

LGTS 300120Z 12006KT CAVOK 22/17 Q1013 NOSIG


Station Type Date Time Source
LGTS Decoded METAR 2022/06/30 01:20 UTC NOAA

Thessaloniki Airport , Greece (LGTS) 40-31N 022-58E 4M
Jun 29, 2022 - 09:20 PM EDT / 2022.06.30 0120 UTC
Wind: from the ESE (120 degrees) at 7 MPH (6 KT):0
Visibility: greater than 7 mile(s):0
Temperature: 71 F (22 C)
Dew Point: 62 F (17 C)
Relative Humidity: 73%
Pressure (altimeter): 29.91 in. Hg (1013 hPa)
ob: LGTS 300120Z 12006KT CAVOK 22/17 Q1013 NOSIG
cycle: 1

Station Type Date Time Source
LGTS TAF 2022/06/29 18:13 UTC NOAA

TAF LGTS 291700Z 2918/3018 16013KT 9999 FEW025
BECMG 2918/2920 VRB03KT
BECMG 3010/3012 16013KT

Example: see airport list